Time;durP1;ratioP1;P1;durP2;ratioP2;P2;SDS_P1;SDS_P2;PMS_P1;PMS_P2;Temp;Humidity;BMP_temperature;BMP_pressure;BME280_temperature;BME280_humidity;BME280_pressure;Samples;Min_cycle;Max_cycle;Signal;HPM_P1;HPM_P2
2022/06/05 00:02:07;;;;;;;9.07;4.18;;;;;;;23.65;64.51;99938.88;4368070;32;32669;-91
2022/06/05 00:04:45;;;;;;;9.70;4.15;;;;;;;23.87;63.65;99933.69;4371395;32;33951;-92
2022/06/05 00:07:44;;;;;;;7.28;4.12;;;;;;;23.84;63.68;99937.06;4380159;32;32930;-91
2022/06/05 00:10:26;;;;;;;9.05;4.68;;;;;;;23.85;63.70;99933.13;4380419;32;33700;-91
2022/06/05 00:13:16;;;;;;;8.07;4.53;;;;;;;23.75;64.03;99937.97;4367913;32;32749;-91
2022/06/05 00:15:45;;;;;;;7.10;4.35;;;;;;;23.77;64.15;99933.75;4380440;32;33816;-91
2022/06/05 00:18:16;;;;;;;7.45;4.80;;;;;;;23.64;64.84;99928.78;4380266;32;34525;-91
2022/06/05 00:20:45;;;;;;;8.57;4.80;;;;;;;23.76;64.38;99932.06;4367306;32;33462;-91
2022/06/05 00:23:15;;;;;;;10.43;5.57;;;;;;;23.80;64.38;99927.56;4380379;32;33505;-92
2022/06/05 00:25:50;;;;;;;9.23;5.18;;;;;;;23.86;64.44;99928.38;4380286;32;33792;-92
2022/06/05 00:28:36;;;;;;;9.13;5.30;;;;;;;23.90;64.23;99921.91;4380674;32;34278;-92
2022/06/05 00:31:10;;;;;;;7.22;5.15;;;;;;;23.76;64.82;99920.88;4367739;32;33310;-92
2022/06/05 00:33:43;;;;;;;9.02;4.90;;;;;;;23.90;64.10;99921.91;4380265;32;33998;-93
2022/06/05 00:36:28;;;;;;;9.07;5.18;;;;;;;23.85;63.91;99921.09;4380700;32;33872;-91
2022/06/05 00:39:10;;;;;;;8.32;5.03;;;;;;;23.97;63.30;99916.78;4380528;32;34546;-95
2022/06/05 00:41:54;;;;;;;10.13;5.25;;;;;;;23.89;63.35;99903.41;4380278;32;34734;-88
2022/06/05 00:44:33;;;;;;;10.65;5.47;;;;;;;23.91;63.11;99906.75;4380310;32;32965;-92
2022/06/05 00:47:02;;;;;;;9.65;5.43;;;;;;;23.88;62.94;99901.72;4355251;32;33026;-94
2022/06/05 00:49:39;;;;;;;10.15;5.25;;;;;;;24.03;62.42;99902.75;4379810;32;34378;-89
2022/06/05 00:52:09;;;;;;;7.65;5.43;;;;;;;23.95;62.54;99893.81;4358801;32;32605;-90
2022/06/05 00:54:37;;;;;;;7.40;5.78;;;;;;;23.89;62.68;99906.19;4371586;32;32117;-91
2022/06/05 00:57:07;;;;;;;7.47;5.53;;;;;;;23.90;62.60;99898.62;4360618;32;34440;-93
2022/06/05 00:59:37;;;;;;;8.15;5.37;;;;;;;23.97;62.41;99890.72;4359976;32;34564;-93
2022/06/05 01:02:07;;;;;;;9.52;5.78;;;;;;;23.86;62.70;99887.16;4367681;32;33381;-93
2022/06/05 01:04:37;;;;;;;8.00;5.35;;;;;;;23.92;62.41;99899.19;4369445;32;34145;-93
2022/06/05 01:07:06;;;;;;;9.75;6.18;;;;;;;23.89;62.43;99894.16;4359243;32;33101;-93
2022/06/05 01:09:34;;;;;;;11.63;6.10;;;;;;;23.88;62.60;99887.72;4372763;32;34505;-92
2022/06/05 01:12:05;;;;;;;12.90;5.90;;;;;;;23.86;62.64;99887.16;4378628;32;33724;-90
2022/06/05 01:15:11;;;;;;;8.30;6.10;;;;;;;23.84;62.58;99881.00;4374300;32;33520;-94
2022/06/05 01:17:51;;;;;;;9.57;6.13;;;;;;;23.77;62.92;99880.50;4373282;32;33861;-93
2022/06/05 01:20:22;;;;;;;11.98;6.57;;;;;;;23.74;62.99;99891.47;4378066;32;34114;-93
2022/06/05 01:23:03;;;;;;;7.75;6.00;;;;;;;23.85;62.54;99887.44;4379803;32;33447;-92
2022/06/05 01:26:03;;;;;;;7.60;6.22;;;;;;;23.76;62.83;99887.22;4368575;32;33333;-93
2022/06/05 01:28:36;;;;;;;9.15;5.87;;;;;;;23.79;62.81;99891.41;4364950;32;33926;-92
2022/06/05 01:31:13;;;;;;;8.50;6.03;;;;;;;23.78;62.71;99886.94;4363655;32;34208;-93
2022/06/05 01:34:04;;;;;;;11.32;6.60;;;;;;;23.81;62.59;99890.00;4364841;32;33513;-93
2022/06/05 01:36:39;;;;;;;7.65;5.93;;;;;;;23.87;62.30;99894.44;4352509;32;33424;-93
2022/06/05 01:39:12;;;;;;;10.10;7.03;;;;;;;23.69;62.88;99897.94;4352626;32;34817;-92
2022/06/05 01:41:48;;;;;;;9.35;6.62;;;;;;;23.75;62.52;99895.94;4352435;32;34434;-92
2022/06/05 01:44:20;;;;;;;8.07;6.00;;;;;;;23.67;62.80;99888.97;4364480;32;32487;-92
2022/06/05 01:46:51;;;;;;;9.93;7.28;;;;;;;23.79;62.49;99895.06;4364155;32;32114;-91
2022/06/05 01:49:22;;;;;;;9.98;6.57;;;;;;;23.74;62.81;99899.88;4352208;32;32424;-92
2022/06/05 01:52:08;;;;;;;8.15;6.45;;;;;;;23.94;61.92;99897.75;4352388;32;33057;-92
2022/06/05 01:54:54;;;;;;;8.25;6.30;;;;;;;23.74;62.58;99894.25;4364687;32;34340;-92
2022/06/05 01:57:23;;;;;;;9.02;6.53;;;;;;;23.68;62.72;99899.06;4364464;32;32889;-92
2022/06/05 01:59:55;;;;;;;9.65;6.28;;;;;;;23.67;62.88;99894.59;4364903;32;34750;-91
2022/06/05 02:02:34;;;;;;;12.20;6.62;;;;;;;23.78;62.52;99887.78;4364696;32;34297;-92
2022/06/05 02:05:08;;;;;;;10.43;6.57;;;;;;;23.85;62.46;99887.44;4364352;32;32515;-92
2022/06/05 02:07:40;;;;;;;9.48;6.65;;;;;;;23.83;62.57;99893.34;4364607;32;33265;-93
2022/06/05 02:10:28;;;;;;;10.02;6.82;;;;;;;23.81;62.79;99892.81;4364580;32;33712;-91
2022/06/05 02:12:58;;;;;;;10.80;7.07;;;;;;;23.85;62.71;99891.09;4364366;32;33985;-92
2022/06/05 02:15:27;;;;;;;8.45;6.53;;;;;;;23.81;62.74;99889.16;4352407;32;34256;-91
2022/06/05 02:17:58;;;;;;;9.70;6.12;;;;;;;23.79;62.82;99899.84;4352089;32;31702;-92
2022/06/05 02:20:27;;;;;;;8.65;5.25;;;;;;;23.72;63.27;99902.97;4352506;32;33901;-90
2022/06/05 02:22:56;;;;;;;9.30;5.25;;;;;;;23.75;63.12;99893.97;4364372;32;34619;-92
2022/06/05 02:25:25;;;;;;;7.47;5.20;;;;;;;23.79;63.00;99897.03;4364339;32;32438;-93
2022/06/05 02:28:00;;;;;;;10.27;5.05;;;;;;;23.78;62.96;99899.00;4364118;32;32445;-92
2022/06/05 02:30:56;;;;;;;12.07;5.93;;;;;;;23.65;63.27;99899.63;4364397;32;33644;-92
2022/06/05 02:33:43;;;;;;;11.50;5.30;;;;;;;23.60;63.37;99894.91;4351862;32;32823;-92
2022/06/05 02:36:34;;;;;;;8.15;5.47;;;;;;;23.46;63.82;99895.78;4364135;32;32085;-92
2022/06/05 02:39:37;;;;;;;7.93;5.37;;;;;;;23.45;63.77;99880.94;4364180;32;33006;-92
2022/06/05 02:42:26;;;;;;;8.05;6.25;;;;;;;23.53;63.43;99876.69;4335739;32;33400;-92
2022/06/05 02:45:17;;;;;;;8.25;5.87;;;;;;;23.51;63.21;99879.78;4365919;32;35475;-92
2022/06/05 02:47:51;;;;;;;9.32;5.57;;;;;;;23.40;63.49;99886.59;4353347;32;32556;-93
2022/06/05 02:50:26;;;;;;;7.80;5.15;;;;;;;23.28;63.89;99889.75;4365955;32;33900;-90
2022/06/05 02:53:03;;;;;;;6.57;5.07;;;;;;;23.30;63.67;99897.88;4353792;32;33939;-92
2022/06/05 02:55:31;;;;;;;8.93;6.07;;;;;;;23.39;63.31;99887.75;4365825;32;34311;-92
2022/06/05 02:57:59;;;;;;;7.43;5.25;;;;;;;23.28;63.50;99891.72;4365728;32;32407;-92
2022/06/05 03:00:30;;;;;;;7.75;5.60;;;;;;;23.29;63.37;99891.44;4365832;32;32521;-92
2022/06/05 03:05:46;;;;;;;7.65;5.35;;;;;;;23.24;63.29;99897.06;4355240;32;32935;-92
2022/06/05 03:08:16;;;;;;;7.68;5.25;;;;;;;23.20;63.34;99890.34;4365695;32;32410;-92
2022/06/05 03:10:44;;;;;;;7.90;5.82;;;;;;;23.18;63.40;99901.00;4365808;32;33179;-92
2022/06/05 03:13:13;;;;;;;9.50;5.93;;;;;;;23.15;63.46;99898.78;4365482;32;32229;-92
2022/06/05 03:15:41;;;;;;;11.70;6.35;;;;;;;23.11;63.50;99899.63;4353501;32;32846;-92
2022/06/05 03:18:12;;;;;;;9.65;6.18;;;;;;;23.16;63.12;99894.84;4353467;32;32595;-92
2022/06/05 03:20:41;;;;;;;7.35;5.12;;;;;;;22.97;63.83;99899.41;4353167;32;32556;-92
2022/06/05 03:23:12;;;;;;;11.57;5.85;;;;;;;22.95;64.01;99896.88;4365592;32;32125;-92
2022/06/05 03:25:41;;;;;;;9.90;6.05;;;;;;;22.99;63.95;99905.56;4365518;32;32827;-92
2022/06/05 03:28:10;;;;;;;7.65;5.53;;;;;;;23.01;63.86;99892.09;4353496;32;34228;-92
2022/06/05 03:30:40;;;;;;;8.63;6.20;;;;;;;22.93;64.15;99890.75;4365584;32;32666;-92
2022/06/05 03:33:08;;;;;;;9.52;6.57;;;;;;;23.01;64.03;99900.50;4365585;32;32503;-91
2022/06/05 03:35:41;;;;;;;9.85;6.22;;;;;;;22.96;64.32;99914.53;4365934;32;34330;-92
2022/06/05 03:38:09;;;;;;;13.85;6.57;;;;;;;23.00;64.21;99921.22;4365358;32;33360;-92
2022/06/05 03:40:43;;;;;;;9.55;6.03;;;;;;;23.02;64.15;99920.94;4352994;32;33323;-90
2022/06/05 03:43:11;;;;;;;10.30;6.68;;;;;;;23.02;64.19;99924.59;4365735;32;33859;-92
2022/06/05 03:45:39;;;;;;;11.12;6.03;;;;;;;23.02;64.27;99924.59;4353138;32;33057;-93
2022/06/05 03:48:12;;;;;;;9.45;6.22;;;;;;;22.97;64.43;99933.84;4365519;32;34632;-92
2022/06/05 03:50:41;;;;;;;13.82;7.22;;;;;;;22.92;64.83;99941.41;4365099;32;31734;-93
2022/06/05 03:53:12;;;;;;;11.18;7.45;;;;;;;22.97;64.59;99945.03;4352746;32;32252;-93
2022/06/05 03:55:40;;;;;;;8.85;6.00;;;;;;;22.86;65.31;99951.78;4352775;32;34416;-92
2022/06/05 03:58:11;;;;;;;7.85;6.00;;;;;;;22.67;66.23;99951.53;4365387;32;32563;-92
2022/06/05 04:00:42;;;;;;;8.80;5.62;;;;;;;22.64;66.52;99960.47;4353138;32;31496;-91
2022/06/05 04:03:10;;;;;;;10.82;5.57;;;;;;;22.80;65.99;99957.66;4353476;32;33064;-92
2022/06/05 04:05:38;;;;;;;8.98;5.60;;;;;;;22.84;65.87;99958.78;4365236;32;32845;-91
2022/06/05 04:08:06;;;;;;;9.40;5.70;;;;;;;22.86;65.90;99957.38;4365385;32;34669;-92
2022/06/05 04:10:34;;;;;;;8.45;6.00;;;;;;;22.88;66.01;99971.91;4353198;32;32743;-91
2022/06/05 04:13:02;;;;;;;9.25;6.60;;;;;;;22.90;66.15;99972.47;4353435;32;33861;-92
2022/06/05 04:15:29;;;;;;;9.32;6.87;;;;;;;22.84;66.61;99973.59;4365255;32;33973;-92
2022/06/05 04:17:57;;;;;;;13.95;7.50;;;;;;;22.64;68.18;99984.81;4352981;32;32316;-92
2022/06/05 04:20:25;;;;;;;9.63;7.55;;;;;;;22.78;67.98;99979.47;4365108;32;32214;-92
2022/06/05 04:22:56;;;;;;;11.10;7.82;;;;;;;22.86;67.84;99979.75;4365214;32;32429;-92
2022/06/05 04:25:27;;;;;;;13.98;9.57;;;;;;;22.67;69.03;99985.09;4365830;32;35216;-91
2022/06/05 04:27:57;;;;;;;11.90;8.75;;;;;;;22.66;69.36;99977.81;4353017;32;34188;-92
2022/06/05 04:30:27;;;;;;;13.90;9.48;;;;;;;22.82;68.86;99975.84;4352912;32;32890;-92
2022/06/05 04:32:58;;;;;;;13.27;9.82;;;;;;;22.87;68.89;99978.63;4365392;32;33942;-91
2022/06/05 04:35:26;;;;;;;15.40;10.65;;;;;;;22.88;68.78;99993.47;4352695;32;34011;-92
2022/06/05 04:37:54;;;;;;;15.25;10.48;;;;;;;22.81;69.25;99993.75;4365079;32;33283;-92
2022/06/05 04:40:22;;;;;;;15.50;11.30;;;;;;;22.74;69.63;99998.81;4340894;32;32928;-92
2022/06/05 04:42:53;;;;;;;19.62;12.60;;;;;;;22.71;70.11;99990.12;4364948;32;33311;-92
2022/06/05 04:45:21;;;;;;;17.15;13.05;;;;;;;22.43;71.43;99991.53;4365296;32;34178;-93
2022/06/05 04:47:52;;;;;;;17.70;12.93;;;;;;;22.22;72.33;99990.69;4364679;32;33181;-92
2022/06/05 04:50:23;;;;;;;19.00;12.45;;;;;;;22.29;72.47;100000.47;4365221;32;33259;-92
2022/06/05 04:52:51;;;;;;;19.73;14.23;;;;;;;22.35;72.54;100001.31;4365338;32;33110;-93
2022/06/05 04:55:20;;;;;;;17.62;13.82;;;;;;;22.33;72.29;100006.34;4364801;32;32977;-91
2022/06/05 04:57:48;;;;;;;18.25;13.45;;;;;;;22.50;71.51;100004.13;4364885;32;32968;-93
2022/06/05 05:00:16;;;;;;;18.65;12.80;;;;;;;22.61;71.12;100010.56;4365239;32;33237;-93
2022/06/05 05:02:44;;;;;;;17.98;13.07;;;;;;;22.75;70.43;100002.44;4364822;32;32616;-92
2022/06/05 05:05:11;;;;;;;17.05;12.40;;;;;;;22.74;70.50;100011.97;4364859;32;34328;-92
2022/06/05 05:07:39;;;;;;;19.50;12.45;;;;;;;22.68;70.68;100017.56;4363926;32;32379;-92
2022/06/05 05:10:08;;;;;;;17.02;12.45;;;;;;;22.55;71.47;100023.72;4364971;32;34402;-92
2022/06/05 05:12:35;;;;;;;15.65;12.32;;;;;;;22.67;71.21;100027.06;4352715;32;34109;-92
2022/06/05 05:15:04;;;;;;;18.23;13.45;;;;;;;22.90;70.15;100028.47;4365363;32;34533;-90
2022/06/05 05:17:31;;;;;;;16.95;12.05;;;;;;;22.48;71.81;100034.34;4364864;32;33983;-92
2022/06/05 05:19:59;;;;;;;17.80;13.57;;;;;;;22.68;71.13;100045.53;4365020;32;33377;-92
2022/06/05 05:22:27;;;;;;;22.73;15.68;;;;;;;22.56;71.68;100042.19;4341247;32;34602;-93
2022/06/05 05:24:55;;;;;;;22.10;15.57;;;;;;;22.62;71.27;100055.06;4364764;32;35148;-94
2022/06/05 05:27:22;;;;;;;22.55;16.90;;;;;;;22.70;70.08;100062.03;4352423;32;33563;-90
2022/06/05 05:29:51;;;;;;;23.75;15.60;;;;;;;22.74;70.60;100059.53;4364801;32;32824;-92
2022/06/05 05:32:19;;;;;;;21.80;14.98;;;;;;;22.74;70.33;100062.31;4364647;32;34333;-89
2022/06/05 05:34:46;;;;;;;19.37;14.32;;;;;;;22.61;70.54;100070.16;4352451;32;33965;-91
2022/06/05 05:37:14;;;;;;;19.45;13.95;;;;;;;22.70;70.20;100064.00;4363819;32;33785;-90
2022/06/05 05:42:30;;;;;;;21.27;13.20;;;;;;;22.82;69.24;100070.16;4367077;32;34679;-96
2022/06/05 05:44:58;;;;;;;16.87;12.85;;;;;;;22.68;69.60;100067.91;4352284;32;32865;-96
2022/06/05 05:47:29;;;;;;;17.02;11.55;;;;;;;22.92;69.13;100070.16;4364648;32;34988;-96
2022/06/05 05:50:06;;;;;;;17.52;11.68;;;;;;;22.90;68.56;100064.84;4364618;32;31671;-96
2022/06/05 05:52:34;;;;;;;16.67;11.43;;;;;;;22.91;68.67;100055.31;4365010;32;35229;-96
2022/06/05 05:55:02;;;;;;;18.12;12.05;;;;;;;22.74;69.22;100059.53;4364525;32;34497;-96
2022/06/05 05:57:40;;;;;;;14.82;10.10;;;;;;;22.79;69.10;100051.13;4353315;32;32234;-95
2022/06/05 06:00:12;;;;;;;14.95;10.45;;;;;;;22.98;68.85;100055.03;4364637;32;33813;-89
2022/06/05 06:02:45;;;;;;;12.80;10.27;;;;;;;23.11;67.63;100057.25;4356716;32;32369;-90
2022/06/05 06:05:18;;;;;;;15.25;9.73;;;;;;;23.09;67.73;100061.47;4352360;32;33903;-90
2022/06/05 06:07:46;;;;;;;12.27;9.38;;;;;;;23.23;67.15;100055.00;4377034;32;34216;-96
2022/06/05 06:10:14;;;;;;;12.02;8.95;;;;;;;23.18;66.90;100056.97;4365880;32;31696;-95
2022/06/05 06:12:42;;;;;;;11.38;8.35;;;;;;;23.15;67.13;100052.78;4376315;32;32248;-96
2022/06/05 06:15:12;;;;;;;10.90;7.30;;;;;;;23.11;66.69;100054.47;4365991;32;33825;-94
2022/06/05 06:17:41;;;;;;;9.55;7.22;;;;;;;23.05;66.72;100055.59;4350859;32;32015;-96
2022/06/05 06:20:12;;;;;;;8.68;6.25;;;;;;;23.19;65.64;100051.09;4351989;32;31960;-94
2022/06/05 06:22:41;;;;;;;10.35;7.25;;;;;;;23.31;65.37;100040.41;4352350;32;33414;-95
2022/06/05 06:25:09;;;;;;;11.00;6.35;;;;;;;23.46;65.46;100033.06;4364118;32;33418;-95
2022/06/05 06:27:42;;;;;;;8.88;6.93;;;;;;;23.40;65.59;100032.25;4340597;32;32354;-94
2022/06/05 06:30:11;;;;;;;9.90;6.85;;;;;;;23.35;65.00;100037.88;4364148;32;34011;-90
2022/06/05 06:32:40;;;;;;;7.97;5.85;;;;;;;23.36;65.63;100036.75;4351717;32;33062;-93
2022/06/05 06:35:08;;;;;;;9.32;6.43;;;;;;;23.30;65.13;100023.91;4352290;32;33842;-93
2022/06/05 06:37:39;;;;;;;8.68;5.93;;;;;;;23.39;64.32;100040.97;4339891;32;33254;-95
2022/06/05 06:40:08;;;;;;;7.90;5.70;;;;;;;23.26;64.58;100037.63;4340100;32;32737;-93
2022/06/05 06:42:39;;;;;;;10.63;6.50;;;;;;;23.35;64.76;100042.66;4354624;32;32794;-92
2022/06/05 06:45:13;;;;;;;9.32;6.80;;;;;;;23.50;63.35;100039.78;4358997;32;33175;-92
2022/06/05 06:47:44;;;;;;;9.65;6.93;;;;;;;23.57;63.52;100040.34;4378299;32;32301;-93
2022/06/05 06:50:18;;;;;;;12.15;6.85;;;;;;;23.53;64.11;100040.06;4378922;32;33129;-93
2022/06/05 06:52:49;;;;;;;9.35;7.07;;;;;;;23.72;63.98;100029.06;4366198;32;33688;-93
2022/06/05 06:55:17;;;;;;;10.25;7.30;;;;;;;23.76;63.95;100018.97;4378633;32;33020;-93
2022/06/05 06:57:47;;;;;;;10.93;7.15;;;;;;;23.92;62.78;100017.75;4366201;32;34092;-93
2022/06/05 07:00:17;;;;;;;10.35;7.12;;;;;;;23.86;63.45;100021.72;4378840;32;33543;-94
2022/06/05 07:02:48;;;;;;;9.80;6.93;;;;;;;24.03;62.63;100026.13;4354206;32;32390;-95
2022/06/05 07:05:16;;;;;;;12.48;7.32;;;;;;;24.03;62.45;100020.50;4366130;32;33334;-94
2022/06/05 07:07:46;;;;;;;10.30;7.75;;;;;;;24.05;62.11;100021.06;4366211;32;32400;-93
2022/06/05 07:10:14;;;;;;;14.10;8.13;;;;;;;24.30;61.37;100015.28;4378046;32;32201;-94
2022/06/05 07:12:47;;;;;;;10.23;7.82;;;;;;;24.19;61.48;100016.44;4366487;32;34046;-94
2022/06/05 07:15:19;;;;;;;10.98;7.62;;;;;;;24.38;60.92;100019.44;4354349;32;35594;-87
2022/06/05 07:17:48;;;;;;;10.70;7.28;;;;;;;24.24;61.73;100017.25;4364656;32;33226;-95
2022/06/05 07:20:20;;;;;;;10.75;7.75;;;;;;;24.07;61.25;100016.81;4356187;32;31936;-88
2022/06/05 07:22:49;;;;;;;11.45;7.35;;;;;;;24.33;59.87;100016.66;4330010;32;33137;-91
2022/06/05 07:25:21;;;;;;;10.52;7.12;;;;;;;24.41;60.28;100010.44;4349094;32;32834;-92
2022/06/05 07:27:50;;;;;;;17.83;14.68;;;;;;;24.67;60.08;100008.25;4348576;32;32904;-90
2022/06/05 07:30:20;;;;;;;10.85;8.32;;;;;;;24.67;60.05;100008.25;4341410;32;31861;-93
2022/06/05 07:32:51;;;;;;;9.38;6.90;;;;;;;24.67;60.21;100014.72;4362547;32;32946;-95
2022/06/05 07:35:19;;;;;;;13.05;7.28;;;;;;;24.85;59.25;100016.75;4346273;32;34742;-94
2022/06/05 07:37:50;;;;;;;9.20;7.15;;;;;;;24.90;58.15;100019.53;4359406;32;33471;-95
2022/06/05 07:40:42;;;;;;;10.90;7.30;;;;;;;24.97;58.73;100015.56;4350124;32;31932;-94
2022/06/05 07:43:14;;;;;;;9.48;6.85;;;;;;;24.74;59.84;100022.75;4357470;32;31821;-95
2022/06/05 07:45:47;;;;;;;10.57;7.37;;;;;;;24.87;59.17;100024.88;4357767;32;32891;-93
2022/06/05 07:48:19;;;;;;;10.82;8.13;;;;;;;24.88;58.72;100027.41;4355898;32;32425;-94
2022/06/05 07:56:22;;;;;;;9.88;7.80;;;;;;;25.04;58.60;100033.75;4369682;32;34387;-95
2022/06/05 07:58:52;;;;;;;9.30;7.20;;;;;;;24.88;58.97;100044.25;4357284;32;32500;-95
2022/06/05 08:01:44;;;;;;;11.07;7.70;;;;;;;25.08;57.79;100043.25;4349127;32;32479;-93
2022/06/05 08:04:13;;;;;;;10.68;7.65;;;;;;;25.22;56.93;100046.22;4357084;32;34658;-91
2022/06/05 08:06:41;;;;;;;11.90;8.10;;;;;;;25.19;57.56;100041.19;4355717;32;33531;-95
2022/06/05 08:09:09;;;;;;;9.88;7.03;;;;;;;25.35;57.28;100034.22;4352135;32;33941;-95
2022/06/05 08:11:39;;;;;;;10.05;6.53;;;;;;;25.36;57.32;100035.06;4355453;32;31630;-95
2022/06/05 08:14:09;;;;;;;9.68;7.07;;;;;;;25.31;56.75;100040.78;4340318;32;32121;-95
2022/06/05 08:16:43;;;;;;;11.50;7.28;;;;;;;25.48;56.90;100038.31;4355984;32;34515;-95
2022/06/05 08:19:13;;;;;;;10.40;8.10;;;;;;;25.40;57.94;100024.91;4354862;32;34094;-95
2022/06/05 08:21:41;;;;;;;9.43;6.90;;;;;;;25.43;56.17;100027.97;4354271;32;33215;-95
2022/06/05 08:24:09;;;;;;;10.23;7.30;;;;;;;25.46;56.33;100041.41;4348966;32;34231;-93
2022/06/05 08:26:38;;;;;;;10.73;7.87;;;;;;;25.53;55.68;100043.87;4348775;32;32677;-94
2022/06/05 08:29:09;;;;;;;9.98;7.80;;;;;;;25.45;56.41;100038.91;4350341;32;32489;-94
2022/06/05 08:31:37;;;;;;;10.93;7.90;;;;;;;25.58;56.35;100043.81;4349808;32;33397;-96
2022/06/05 08:34:06;;;;;;;10.27;7.78;;;;;;;25.54;55.64;100043.56;4362568;32;34451;-95
2022/06/05 08:36:34;;;;;;;8.85;6.85;;;;;;;25.72;55.98;100046.75;4362601;32;34809;-94
2022/06/05 08:41:58;;;;;;;8.43;7.30;;;;;;;25.57;57.04;100051.41;4352309;32;32893;-95
2022/06/05 08:45:08;;;;;;;13.05;10.50;;;;;;;25.40;57.44;100044.56;4350461;32;32490;-95
2022/06/05 08:47:42;;;;;;;11.95;9.25;;;;;;;25.63;56.73;100055.00;4329503;32;34786;-96
2022/06/05 08:50:25;;;;;;;9.18;8.15;;;;;;;25.69;56.85;100053.81;4362438;32;33446;-93
2022/06/05 08:52:57;;;;;;;13.20;8.82;;;;;;;25.71;56.50;100056.34;4350293;32;31980;-92
2022/06/05 08:55:25;;;;;;;8.40;7.05;;;;;;;25.92;55.42;100057.75;4362627;32;34061;-94
2022/06/05 08:58:09;;;;;;;10.38;7.35;;;;;;;25.92;55.47;100047.34;4350506;32;33708;-94
2022/06/05 09:00:43;;;;;;;11.05;7.90;;;;;;;25.68;55.66;100040.91;4350912;32;33316;-92
2022/06/05 09:03:46;;;;;;;11.88;7.55;;;;;;;25.62;56.03;100042.06;4350369;32;32088;-94
2022/06/05 09:06:36;;;;;;;10.50;8.13;;;;;;;25.73;56.38;100038.03;4362506;32;34702;-94
2022/06/05 09:09:10;;;;;;;9.75;7.35;;;;;;;25.71;56.73;100034.69;4350164;32;33001;-93
2022/06/05 09:11:49;;;;;;;10.90;8.85;;;;;;;25.77;54.96;100032.63;4363065;32;33334;-95
2022/06/05 09:14:33;;;;;;;11.88;8.75;;;;;;;25.92;55.24;100035.25;4350565;32;32844;-96
2022/06/05 09:17:20;;;;;;;11.73;7.05;;;;;;;25.97;56.59;100023.09;4350524;32;32236;-96
2022/06/05 09:19:50;;;;;;;9.52;7.30;;;;;;;25.96;55.14;100029.84;4350264;32;33795;-96
2022/06/05 09:22:29;;;;;;;11.50;7.72;;;;;;;26.07;55.38;100031.34;4362508;32;34334;-95
2022/06/05 09:25:39;;;;;;;9.05;7.12;;;;;;;26.08;55.68;100039.50;4350087;32;33541;-95
2022/06/05 09:28:44;;;;;;;9.40;7.43;;;;;;;26.20;54.40;100033.41;4339161;32;32016;-96
2022/06/05 09:31:22;;;;;;;10.70;7.35;;;;;;;26.39;54.61;100027.81;4341614;32;34718;-95
2022/06/05 09:33:52;;;;;;;38.78;34.70;;;;;;;26.64;53.38;100030.22;4350237;32;34237;-96
2022/06/05 09:36:24;;;;;;;12.77;8.40;;;;;;;26.85;51.82;100033.50;4349793;32;32938;-93
2022/06/05 09:38:59;;;;;;;9.60;7.85;;;;;;;26.86;52.68;100044.47;4362161;32;31971;-94
2022/06/05 09:41:33;;;;;;;15.80;8.25;;;;;;;27.01;51.68;100034.94;4362516;32;33204;-92
2022/06/05 09:44:03;;;;;;;10.45;7.15;;;;;;;27.08;51.82;100032.56;4362407;32;34666;-95
2022/06/05 09:46:42;;;;;;;12.52;7.97;;;;;;;26.93;51.67;100044.06;4350156;32;32632;-93
2022/06/05 09:49:17;;;;;;;9.50;7.93;;;;;;;26.84;52.07;100045.91;4364751;32;33749;-96
2022/06/05 09:51:57;;;;;;;11.82;7.70;;;;;;;26.66;51.46;100050.44;4351353;32;33658;-92
2022/06/05 09:54:30;;;;;;;11.45;8.30;;;;;;;26.53;51.97;100057.72;4352529;32;32365;-93
2022/06/05 10:00:41;;;;;;;11.07;8.10;;;;;;;26.95;51.56;100052.22;4354241;32;32398;-95
2022/06/05 10:03:11;;;;;;;9.40;7.80;;;;;;;26.81;50.80;100064.28;4364745;32;34532;-93
2022/06/05 10:05:44;;;;;;;10.57;7.47;;;;;;;26.67;50.63;100054.94;4364766;32;33973;-95
2022/06/05 10:08:23;;;;;;;9.65;7.37;;;;;;;26.83;51.57;100061.16;4364210;32;31764;-93
2022/06/05 10:10:58;;;;;;;13.43;8.55;;;;;;;27.17;50.39;100056.06;4352655;32;34029;-93
2022/06/05 10:14:07;;;;;;;10.38;7.57;;;;;;;27.11;51.15;100057.31;4354401;32;34369;-96
2022/06/05 10:16:55;;;;;;;16.60;10.77;;;;;;;27.00;51.49;100055.81;4350839;32;34873;-93
2022/06/05 10:19:54;;;;;;;11.98;8.82;;;;;;;26.83;52.38;100061.97;4364462;32;33430;-89
2022/06/05 10:22:31;;;;;;;12.02;8.98;;;;;;;26.89;51.44;100063.56;4364452;32;33789;-92
2022/06/05 10:25:21;;;;;;;10.60;8.30;;;;;;;27.12;50.40;100052.50;4352384;32;32951;-91
2022/06/05 10:27:54;;;;;;;11.68;7.60;;;;;;;26.91;50.40;100049.19;4364406;32;34161;-90
2022/06/05 10:30:30;;;;;;;10.18;7.10;;;;;;;26.88;49.89;100041.34;4364511;32;33287;-90
2022/06/05 10:33:06;;;;;;;10.05;6.68;;;;;;;26.76;49.99;100039.00;4364257;32;33824;-90
2022/06/05 10:35:44;;;;;;;8.38;6.25;;;;;;;26.83;48.35;100031.00;4351945;32;33660;-90
2022/06/05 10:38:40;;;;;;;12.85;7.28;;;;;;;26.82;48.99;100025.69;4351850;32;34177;-92
2022/06/05 10:41:49;;;;;;;9.55;6.15;;;;;;;27.20;49.43;100026.44;4352023;32;32764;-92
2022/06/05 10:44:24;;;;;;;7.85;5.72;;;;;;;26.95;47.50;100024.88;4341622;32;34664;-91
2022/06/05 10:46:52;;;;;;;8.95;5.78;;;;;;;27.45;47.01;100005.31;4351785;32;34470;-88
2022/06/05 10:49:29;;;;;;;8.77;5.78;;;;;;;27.27;46.18;100011.94;4364215;32;34043;-93
2022/06/05 10:52:21;;;;;;;7.50;5.70;;;;;;;27.58;45.08;100009.31;4364338;32;33277;-93
2022/06/05 10:55:26;;;;;;;6.53;5.22;;;;;;;27.19;45.40;100005.03;4363322;32;34413;-94
2022/06/05 10:58:16;;;;;;;7.60;5.07;;;;;;;27.42;46.16;100003.13;4349185;32;34509;-87
2022/06/05 11:01:13;;;;;;;9.20;5.55;;;;;;;27.58;43.92;100010.13;4350652;32;32340;-89
2022/06/05 11:03:47;;;;;;;;;;;;;;;27.69;43.90;100000.34;4372664;32;33367;-92
2022/06/05 11:06:54;;;;;;;9.75;5.28;;;;;;;27.86;42.62;99994.06;4369780;32;34926;-89
2022/06/05 11:09:37;;;;;;;7.28;5.50;;;;;;;27.99;41.84;99993.16;4351894;32;32907;-91
2022/06/05 11:15:01;;;;;;;8.10;4.82;;;;;;;28.27;41.58;99991.13;4365448;32;33358;-91
2022/06/05 11:17:47;;;;;;;7.28;5.03;;;;;;;28.60;41.12;99997.34;4353172;32;32203;-91
2022/06/05 11:20:23;;;;;;;7.10;4.70;;;;;;;28.47;40.84;99993.47;4365819;32;33266;-95
2022/06/05 11:23:04;;;;;;;7.22;4.68;;;;;;;28.39;39.87;99996.22;4353576;32;32382;-91
2022/06/05 11:25:39;;;;;;;6.68;4.87;;;;;;;28.20;39.84;100000.00;4351788;32;31616;-90
2022/06/05 11:28:25;;;;;;;6.68;4.00;;;;;;;28.41;40.66;100000.37;4379009;32;34197;-96
2022/06/05 11:31:08;;;;;;;6.22;4.70;;;;;;;28.73;40.73;100004.09;4353445;32;32709;-91
2022/06/05 11:33:47;;;;;;;6.07;4.15;;;;;;;28.84;39.41;100005.53;4351866;32;33487;-95
2022/06/05 11:36:47;;;;;;;6.80;4.40;;;;;;;28.92;39.05;99999.09;4340956;32;31842;-92
2022/06/05 11:39:24;;;;;;;11.95;9.65;;;;;;;29.18;39.16;99993.59;4350944;32;33534;-94
2022/06/05 11:42:39;;;;;;;6.12;4.40;;;;;;;29.42;38.82;99991.19;4350833;32;35378;-95
2022/06/05 11:45:29;;;;;;;5.80;3.92;;;;;;;29.35;37.71;99998.47;4343360;32;33435;-96
2022/06/05 11:48:05;;;;;;;6.75;4.37;;;;;;;29.52;38.45;99984.41;4354015;32;33377;-96
2022/06/05 11:51:12;;;;;;;5.93;4.30;;;;;;;29.60;38.25;99982.78;4354274;32;32126;-96
2022/06/05 11:53:52;;;;;;;7.10;4.78;;;;;;;29.57;38.61;99975.78;4365873;32;34348;-94
2022/06/05 11:56:50;;;;;;;7.20;4.60;;;;;;;29.54;38.58;99970.78;4365685;32;33820;-91
2022/06/05 11:59:40;;;;;;;6.10;4.70;;;;;;;29.18;39.35;99979.44;4371350;32;31683;-83
2022/06/05 12:02:29;;;;;;;9.88;5.03;;;;;;;29.22;38.04;99969.16;4349232;32;33115;-82
2022/06/05 12:05:04;;;;;;;6.65;4.25;;;;;;;28.87;39.31;99962.50;4365309;32;34540;-91
2022/06/05 12:07:32;;;;;;;6.78;4.90;;;;;;;28.97;39.40;99953.75;4341928;32;32535;-91
2022/06/05 12:10:26;;;;;;;6.65;4.72;;;;;;;28.66;40.19;99945.22;4338199;32;34330;-93
2022/06/05 12:13:11;;;;;;;6.25;4.60;;;;;;;29.04;39.85;99951.28;4338131;32;33173;-93
2022/06/05 12:15:47;;;;;;;;;;;;;;;29.28;38.89;99939.56;4337628;32;33157;-90
2022/06/05 12:18:21;;;;;;;9.05;4.28;;;;;;;29.29;38.10;99934.72;4338093;32;33683;-90
2022/06/05 12:21:07;;;;;;;6.53;4.07;;;;;;;29.38;38.38;99929.94;4338382;32;33125;-92
2022/06/05 12:23:44;;;;;;;6.15;4.20;;;;;;;29.32;38.32;99932.09;4338104;32;32197;-93